Time;durP1;ratioP1;P1;durP2;ratioP2;P2;SDS_P1;SDS_P2;PMS_P1;PMS_P2;Temp;Humidity;BMP_temperature;BMP_pressure;BME280_temperature;BME280_humidity;BME280_pressure;Samples;Min_cycle;Max_cycle;Signal;HPM_P1;HPM_P2
2022/05/30 00:00:44;;;;;;;3.88;1.35;;;12.60;59.00;;;;;;5007433;28;20030;-77
2022/05/30 00:03:10;;;;;;;2.45;1.42;;;12.50;59.10;;;;;;5022862;28;20018;-78
2022/05/30 00:05:36;;;;;;;1.85;1.65;;;12.60;58.80;;;;;;4996836;28;20030;-77
2022/05/30 00:08:03;;;;;;;2.67;1.42;;;12.60;58.80;;;;;;4996995;28;20027;-77
2022/05/30 00:10:29;;;;;;;5.50;1.08;;;12.50;59.50;;;;;;4997025;28;20023;-77
2022/05/30 00:12:55;;;;;;;7.00;1.15;;;12.50;59.30;;;;;;5040219;28;20026;-77
2022/05/30 00:15:22;;;;;;;2.20;1.35;;;12.40;59.50;;;;;;5016593;28;20033;-77
2022/05/30 00:17:48;;;;;;;7.60;1.92;;;12.50;59.70;;;;;;5031701;28;20044;-77
2022/05/30 00:20:14;;;;;;;4.00;1.23;;;12.50;59.60;;;;;;5013929;28;20049;-77
2022/05/30 00:22:40;;;;;;;1.77;1.08;;;12.50;59.40;;;;;;5016171;28;20041;-77
2022/05/30 00:25:06;;;;;;;2.85;2.17;;;12.30;60.20;;;;;;5016095;28;20034;-77
2022/05/30 00:27:32;;;;;;;2.60;1.42;;;12.30;60.20;;;;;;5000188;28;20600;-77
2022/05/30 00:29:58;;;;;;;1.90;1.15;;;12.30;60.10;;;;;;5000518;28;20025;-77
2022/05/30 00:32:24;;;;;;;1.95;1.48;;;12.30;60.60;;;;;;5011680;28;20037;-77
2022/05/30 00:34:53;;;;;;;2.78;1.50;;;12.30;60.40;;;;;;5016185;28;20030;-77
2022/05/30 00:37:18;;;;;;;3.28;1.45;;;12.20;60.60;;;;;;5014901;28;20105;-77
2022/05/30 00:39:44;;;;;;;2.92;1.45;;;12.20;60.50;;;;;;5003856;28;20035;-77
2022/05/30 00:42:13;;;;;;;2.72;1.17;;;12.10;60.80;;;;;;5026956;28;20057;-77
2022/05/30 00:44:43;;;;;;;2.45;1.13;;;12.10;61.10;;;;;;4996386;28;20517;-77
2022/05/30 00:47:09;;;;;;;5.75;1.40;;;12.10;61.00;;;;;;4996441;28;20030;-77
2022/05/30 00:49:38;;;;;;;3.90;1.70;;;12.10;61.20;;;;;;4996220;28;20436;-77
2022/05/30 00:52:07;;;;;;;4.70;1.63;;;12.00;61.10;;;;;;4995934;28;20022;-77
2022/05/30 00:55:10;;;;;;;1.75;1.17;;;11.90;61.50;;;;;;4995953;28;20033;-77
2022/05/30 00:57:39;;;;;;;2.40;1.38;;;12.00;61.50;;;;;;4995881;28;20046;-77
2022/05/30 01:00:10;;;;;;;2.45;1.35;;;11.90;61.40;;;;;;4995742;28;20109;-77
2022/05/30 01:02:39;;;;;;;4.90;2.10;;;11.90;61.20;;;;;;5011204;28;20567;-77
2022/05/30 01:07:53;;;;;;;5.28;1.60;;;11.90;61.50;;;;;;5002058;28;20069;-77
2022/05/30 01:10:20;;;;;;;4.10;1.40;;;11.90;61.60;;;;;;4995729;28;20114;-77
2022/05/30 01:12:57;;;;;;;2.30;1.63;;;11.90;61.10;;;;;;4995767;28;20029;-77
2022/05/30 01:15:29;;;;;;;2.50;1.63;;;11.90;61.30;;;;;;4995917;28;20727;-77
2022/05/30 01:18:10;;;;;;;2.67;1.52;;;11.90;61.30;;;;;;5010267;28;20022;-77
2022/05/30 01:21:15;;;;;;;3.97;1.63;;;11.90;61.20;;;;;;5002303;28;20033;-77
2022/05/30 01:24:02;;;;;;;5.57;2.05;;;11.90;61.40;;;;;;5008216;28;20026;-77
2022/05/30 01:26:48;;;;;;;3.50;1.73;;;11.90;61.10;;;;;;4995695;28;20031;-77
2022/05/30 01:29:20;;;;;;;4.03;1.55;;;11.90;61.70;;;;;;5010862;28;20058;-77
2022/05/30 01:31:48;;;;;;;2.45;1.80;;;11.90;61.60;;;;;;4994654;28;20034;-77
2022/05/30 01:34:14;;;;;;;5.90;1.80;;;11.90;61.60;;;;;;5014245;28;20564;-78
2022/05/30 01:36:40;;;;;;;2.40;1.77;;;11.80;61.30;;;;;;4996719;28;20105;-77
2022/05/30 01:39:06;;;;;;;3.47;1.77;;;11.80;61.00;;;;;;4995339;28;20038;-77
2022/05/30 01:41:32;;;;;;;4.20;1.98;;;11.80;61.90;;;;;;4995194;28;20624;-77
2022/05/30 01:43:57;;;;;;;2.55;1.63;;;11.80;62.10;;;;;;4994963;28;20031;-77
2022/05/30 01:46:26;;;;;;;2.53;1.67;;;11.70;62.10;;;;;;4995557;28;20039;-78
2022/05/30 01:48:52;;;;;;;2.10;1.85;;;11.70;62.00;;;;;;5010239;28;20033;-77
2022/05/30 01:51:20;;;;;;;2.67;1.60;;;11.70;62.70;;;;;;5008925;28;20065;-77
2022/05/30 01:53:46;;;;;;;4.30;1.73;;;11.70;62.10;;;;;;5010360;28;20041;-77
2022/05/30 01:56:14;;;;;;;2.15;1.77;;;11.70;62.50;;;;;;4994506;28;20034;-77
2022/05/30 01:58:40;;;;;;;5.22;2.05;;;11.60;62.60;;;;;;4994966;28;20287;-77
2022/05/30 02:01:18;;;;;;;2.63;1.70;;;11.60;62.70;;;;;;5008937;28;20053;-77
2022/05/30 02:03:49;;;;;;;2.13;1.55;;;11.60;62.70;;;;;;4995244;28;20037;-77
2022/05/30 02:06:16;;;;;;;3.85;2.00;;;11.50;62.90;;;;;;4996733;28;20038;-77
2022/05/30 02:08:42;;;;;;;2.13;1.60;;;11.50;63.00;;;;;;5013128;28;20029;-77
2022/05/30 02:11:18;;;;;;;5.47;1.95;;;11.50;63.30;;;;;;5014496;28;20029;-77
2022/05/30 02:13:44;;;;;;;2.97;1.58;;;11.40;63.20;;;;;;5012494;28;20021;-77
2022/05/30 02:19:00;;;;;;;2.90;2.08;;;11.40;63.60;;;;;;4994793;28;20037;-77
2022/05/30 02:21:26;;;;;;;;;;;11.30;63.70;;;;;;5023562;28;20026;-77
2022/05/30 02:23:52;;;;;;;4.72;2.20;;;11.30;63.80;;;;;;5012943;28;20422;-77
2022/05/30 02:26:18;;;;;;;6.30;1.45;;;11.30;63.40;;;;;;5009146;28;20022;-77
2022/05/30 02:28:46;;;;;;;3.20;2.10;;;11.30;63.60;;;;;;5009668;28;20045;-77
2022/05/30 02:31:11;;;;;;;4.75;2.00;;;11.30;63.60;;;;;;4994331;28;20492;-77
2022/05/30 02:36:39;;;;;;;2.60;2.10;;;11.30;64.10;;;;;;5008745;28;20030;-77
2022/05/30 02:39:09;;;;;;;5.45;2.28;;;11.30;64.10;;;;;;4994653;28;20027;-77
2022/05/30 02:41:36;;;;;;;3.25;1.80;;;11.20;64.30;;;;;;4994235;28;20211;-77
2022/05/30 02:44:02;;;;;;;2.63;2.00;;;11.20;64.40;;;;;;4994117;28;20034;-77
2022/05/30 02:46:29;;;;;;;1.77;1.40;;;11.10;64.40;;;;;;5009528;28;20033;-77
2022/05/30 02:48:54;;;;;;;3.47;2.20;;;11.10;64.80;;;;;;4994299;28;20030;-77
2022/05/30 02:51:24;;;;;;;5.25;1.88;;;11.10;64.90;;;;;;4994222;28;20105;-77
2022/05/30 02:53:49;;;;;;;3.10;2.38;;;11.00;65.10;;;;;;4993388;28;20030;-77
2022/05/30 02:56:16;;;;;;;3.22;2.05;;;11.10;65.00;;;;;;4993838;28;20265;-77
2022/05/30 02:58:42;;;;;;;4.75;2.15;;;11.20;64.40;;;;;;5009242;28;20034;-77
2022/05/30 03:01:09;;;;;;;3.08;1.60;;;11.10;64.40;;;;;;4994200;28;20210;-80
2022/05/30 03:03:35;;;;;;;6.25;2.58;;;11.20;64.40;;;;;;4994031;28;20033;-77
2022/05/30 03:06:01;;;;;;;2.60;1.88;;;11.10;64.80;;;;;;4994011;28;20022;-77
2022/05/30 03:08:27;;;;;;;3.35;2.08;;;11.10;64.20;;;;;;4997067;28;20030;-77
2022/05/30 03:10:52;;;;;;;6.90;2.25;;;11.10;64.70;;;;;;5008527;28;20038;-77
2022/05/30 03:13:18;;;;;;;3.17;1.88;;;11.00;64.60;;;;;;4993877;28;20023;-77
2022/05/30 03:15:44;;;;;;;2.88;2.10;;;11.00;65.20;;;;;;4993393;28;20033;-77
2022/05/30 03:18:10;;;;;;;4.45;2.40;;;10.90;65.00;;;;;;4993743;28;20030;-77
2022/05/30 03:20:36;;;;;;;5.35;2.03;;;10.90;65.20;;;;;;5000554;28;20026;-77
2022/05/30 03:23:02;;;;;;;4.85;1.95;;;10.90;65.40;;;;;;5013333;28;20040;-77
2022/05/30 03:25:30;;;;;;;2.47;1.67;;;10.90;65.30;;;;;;5013474;28;20025;-77
2022/05/30 03:27:56;;;;;;;3.30;1.70;;;10.90;65.10;;;;;;5000529;28;20037;-77
2022/05/30 03:30:23;;;;;;;3.42;2.50;;;10.90;65.30;;;;;;5008678;28;20019;-78
2022/05/30 03:32:49;;;;;;;4.53;2.05;;;10.80;65.50;;;;;;5011006;28;20034;-77
2022/05/30 03:35:16;;;;;;;5.05;2.20;;;10.80;65.70;;;;;;5028731;28;20052;-77
2022/05/30 03:37:42;;;;;;;3.92;2.30;;;10.80;66.20;;;;;;5012263;28;20030;-77
2022/05/30 03:40:10;;;;;;;7.03;2.45;;;10.70;66.20;;;;;;5008215;28;20066;-77
2022/05/30 03:42:36;;;;;;;3.58;2.15;;;10.70;66.60;;;;;;4993571;28;20081;-77
2022/05/30 03:45:03;;;;;;;3.13;2.08;;;10.70;66.60;;;;;;4993489;28;20022;-77
2022/05/30 03:47:39;;;;;;;4.68;2.90;;;10.80;66.50;;;;;;5008831;28;20030;-77
2022/05/30 03:50:06;;;;;;;7.22;2.47;;;10.80;66.10;;;;;;4993060;28;20030;-77
2022/05/30 03:52:32;;;;;;;3.00;1.88;;;10.80;66.50;;;;;;5008857;28;20030;-77
2022/05/30 03:54:57;;;;;;;7.18;3.00;;;10.80;66.50;;;;;;4993638;28;20078;-77
2022/05/30 03:57:23;;;;;;;4.15;2.20;;;10.80;66.40;;;;;;4993323;28;20039;-77
2022/05/30 03:59:49;;;;;;;3.42;1.90;;;10.80;66.50;;;;;;4993619;28;20092;-77
2022/05/30 04:02:15;;;;;;;3.25;2.10;;;10.70;66.10;;;;;;5007540;28;20035;-77
2022/05/30 04:04:40;;;;;;;4.03;2.20;;;10.70;66.30;;;;;;5008161;28;20022;-77
2022/05/30 04:07:07;;;;;;;4.38;2.88;;;10.70;66.30;;;;;;5002034;28;20566;-77
2022/05/30 04:09:33;;;;;;;4.68;2.13;;;10.70;66.50;;;;;;5013101;28;20022;-77
2022/05/30 04:11:58;;;;;;;4.82;2.05;;;10.70;66.60;;;;;;5011795;28;20117;-78
2022/05/30 04:14:24;;;;;;;4.97;2.22;;;10.70;66.10;;;;;;4994721;28;20489;-77
2022/05/30 04:16:50;;;;;;;4.65;2.58;;;10.70;66.40;;;;;;4993428;28;20615;-77
2022/05/30 04:19:15;;;;;;;5.97;2.45;;;10.70;66.10;;;;;;4993153;28;20035;-77
2022/05/30 04:21:41;;;;;;;4.35;2.50;;;10.60;66.60;;;;;;5008665;28;20088;-77
2022/05/30 04:24:07;;;;;;;2.65;2.03;;;10.60;66.10;;;;;;5011699;28;20026;-77
2022/05/30 04:26:33;;;;;;;4.50;2.42;;;10.70;66.30;;;;;;5012626;28;20153;-77
2022/05/30 04:28:59;;;;;;;4.15;2.30;;;10.70;66.40;;;;;;5010051;28;20109;-77
2022/05/30 04:31:24;;;;;;;2.65;2.13;;;10.60;66.80;;;;;;4996808;28;20034;-77
2022/05/30 04:33:50;;;;;;;5.10;2.42;;;10.60;66.50;;;;;;5010272;28;20030;-77
2022/05/30 04:36:16;;;;;;;3.97;2.17;;;10.60;66.80;;;;;;4996727;28;20053;-77
2022/05/30 04:38:42;;;;;;;3.15;2.50;;;10.50;67.20;;;;;;4996678;28;20392;-77
2022/05/30 04:41:08;;;;;;;4.75;2.60;;;10.50;67.20;;;;;;4996419;28;20050;-77
2022/05/30 04:43:33;;;;;;;3.50;2.75;;;10.50;67.10;;;;;;5011010;28;20026;-77
2022/05/30 04:46:06;;;;;;;5.07;2.60;;;10.50;67.20;;;;;;5011646;28;20034;-77
2022/05/30 04:48:32;;;;;;;5.57;2.90;;;10.50;67.00;;;;;;5015577;28;20034;-77
2022/05/30 04:50:58;;;;;;;8.32;2.90;;;10.40;67.40;;;;;;5010266;28;20022;-77
2022/05/30 04:53:24;;;;;;;3.63;2.35;;;10.40;67.60;;;;;;5030612;28;20044;-73
2022/05/30 04:55:50;;;;;;;3.92;2.50;;;10.50;67.60;;;;;;5011401;28;20034;-74
2022/05/30 04:58:16;;;;;;;5.47;2.88;;;10.40;67.80;;;;;;4996054;28;20515;-74
2022/05/30 05:00:41;;;;;;;3.72;2.55;;;10.40;67.90;;;;;;4995349;28;20066;-74
2022/05/30 05:03:07;;;;;;;4.00;2.55;;;10.40;68.00;;;;;;5001094;28;20075;-75
2022/05/30 05:05:32;;;;;;;4.25;2.95;;;10.50;67.30;;;;;;5015416;28;20120;-75
2022/05/30 05:08:17;;;;;;;7.03;2.92;;;10.60;67.60;;;;;;5015353;28;20362;-75
2022/05/30 05:11:07;;;;;;;3.67;2.30;;;10.50;67.90;;;;;;5005260;28;20113;-76
2022/05/30 05:13:33;;;;;;;6.05;3.10;;;10.50;68.40;;;;;;4995805;28;20026;-76
2022/05/30 05:15:58;;;;;;;3.72;2.53;;;10.40;69.20;;;;;;4996018;28;20161;-76
2022/05/30 05:18:24;;;;;;;3.78;2.33;;;10.30;69.60;;;;;;4995118;28;20030;-79
2022/05/30 05:20:49;;;;;;;6.93;2.97;;;10.20;69.90;;;;;;4999641;28;20030;-76
2022/05/30 05:23:15;;;;;;;3.33;2.30;;;10.30;69.90;;;;;;4995700;28;20123;-76
2022/05/30 05:25:41;;;;;;;6.03;3.20;;;10.30;70.40;;;;;;5010756;28;20022;-76
2022/05/30 05:28:07;;;;;;;6.63;3.10;;;10.30;70.70;;;;;;5009598;28;20034;-75
2022/05/30 05:30:34;;;;;;;7.47;2.58;;;10.30;70.80;;;;;;4995594;28;20040;-75
2022/05/30 05:33:00;;;;;;;7.70;2.65;;;10.40;70.50;;;;;;4995709;28;20089;-75
2022/05/30 05:35:26;;;;;;;5.57;2.85;;;10.50;70.50;;;;;;5004534;28;20049;-76
2022/05/30 05:37:52;;;;;;;6.10;2.42;;;10.50;70.40;;;;;;5014456;28;20014;-75
2022/05/30 05:40:18;;;;;;;3.28;2.38;;;10.50;70.30;;;;;;5013076;28;20036;-75
2022/05/30 05:42:43;;;;;;;5.00;2.75;;;10.50;70.70;;;;;;5008982;28;20026;-75
2022/05/30 05:45:10;;;;;;;3.55;2.30;;;10.60;70.90;;;;;;4995369;28;20393;-75
2022/05/30 05:47:36;;;;;;;2.88;2.33;;;10.70;70.70;;;;;;5010294;28;20058;-75
2022/05/30 05:50:02;;;;;;;5.25;2.88;;;10.80;70.20;;;;;;4995145;28;20396;-75
2022/05/30 05:52:32;;;;;;;8.52;2.90;;;10.80;70.60;;;;;;4998966;28;20084;-75
2022/05/30 05:54:58;;;;;;;;;;;10.80;71.00;;;;;;4994407;28;20033;-76
2022/05/30 05:57:28;;;;;;;5.25;2.40;;;10.80;71.00;;;;;;4995310;28;20427;-75
2022/05/30 05:59:53;;;;;;;3.40;2.30;;;10.90;70.00;;;;;;5032071;28;20085;-75
2022/05/30 06:02:19;;;;;;;4.78;2.63;;;10.90;71.10;;;;;;5009984;28;20060;-75
2022/05/30 06:04:46;;;;;;;3.20;2.15;;;11.00;70.90;;;;;;5011052;28;20073;-75
2022/05/30 06:07:12;;;;;;;4.65;2.90;;;11.10;71.00;;;;;;5012308;28;20018;-75
2022/05/30 06:09:39;;;;;;;3.47;2.60;;;11.10;70.70;;;;;;5009430;28;21488;-75
2022/05/30 06:12:07;;;;;;;4.60;2.60;;;11.10;71.10;;;;;;5025481;28;20030;-75
2022/05/30 06:14:33;;;;;;;5.40;3.15;;;11.20;71.00;;;;;;5010249;28;20037;-76
2022/05/30 06:16:59;;;;;;;6.15;2.67;;;11.20;70.70;;;;;;5008890;28;20030;-75
2022/05/30 06:19:24;;;;;;;7.13;2.70;;;11.30;71.40;;;;;;5010715;28;20098;-75
2022/05/30 06:21:50;;;;;;;6.82;2.70;;;11.30;70.90;;;;;;5012662;28;20058;-75
2022/05/30 06:24:16;;;;;;;3.67;2.63;;;11.40;69.60;;;;;;5013041;28;20088;-75
2022/05/30 06:26:45;;;;;;;5.60;2.47;;;11.50;69.40;;;;;;5010100;28;20109;-75
2022/05/30 06:29:15;;;;;;;7.35;2.80;;;11.60;69.90;;;;;;5012377;28;20409;-75
2022/05/30 06:31:43;;;;;;;4.50;2.25;;;11.60;69.40;;;;;;5008410;28;20026;-75
2022/05/30 06:34:09;;;;;;;5.90;2.67;;;11.70;69.40;;;;;;5008907;28;20049;-75
2022/05/30 06:36:35;;;;;;;7.07;2.28;;;11.70;70.80;;;;;;5009282;28;20028;-78
2022/05/30 06:39:01;;;;;;;3.20;2.10;;;11.70;71.40;;;;;;5009767;28;20487;-77
2022/05/30 06:41:29;;;;;;;3.95;2.10;;;11.80;70.40;;;;;;4999253;28;20133;-77
2022/05/30 06:44:02;;;;;;;5.53;2.30;;;11.80;70.50;;;;;;4994881;28;20062;-77
2022/05/30 06:46:28;;;;;;;5.72;2.40;;;11.90;71.00;;;;;;5013506;28;20037;-78
2022/05/30 06:48:57;;;;;;;3.50;2.30;;;11.90;70.90;;;;;;5008029;28;20046;-78
2022/05/30 06:51:24;;;;;;;5.10;2.40;;;12.00;69.40;;;;;;4993351;28;20022;-77
2022/05/30 06:53:50;;;;;;;3.50;1.95;;;12.10;70.90;;;;;;5011184;28;20032;-77
2022/05/30 06:56:22;;;;;;;3.13;1.90;;;12.10;69.90;;;;;;5011311;28;20474;-77
2022/05/30 06:58:52;;;;;;;3.03;2.20;;;12.20;70.30;;;;;;5005840;28;20523;-77
2022/05/30 07:01:23;;;;;;;3.78;2.40;;;12.20;69.70;;;;;;4993827;28;20054;-77
2022/05/30 07:03:48;;;;;;;;;;;12.30;70.50;;;;;;5011555;28;20064;-77
2022/05/30 07:06:20;;;;;;;5.75;2.63;;;12.30;69.90;;;;;;5012286;28;20009;-77
2022/05/30 07:08:46;;;;;;;5.72;2.03;;;12.50;68.80;;;;;;5010852;28;20030;-77
2022/05/30 07:11:13;;;;;;;3.42;2.17;;;12.60;68.60;;;;;;5013132;28;20025;-77
2022/05/30 07:13:39;;;;;;;4.10;1.95;;;12.70;68.20;;;;;;5010962;28;20063;-77
2022/05/30 07:16:05;;;;;;;3.85;2.10;;;12.80;67.60;;;;;;5017629;28;20049;-77
2022/05/30 07:18:31;;;;;;;4.68;2.63;;;12.90;67.70;;;;;;5008042;28;20036;-77
2022/05/30 07:20:59;;;;;;;4.47;2.08;;;13.10;67.00;;;;;;5011644;28;20423;-77
2022/05/30 07:23:25;;;;;;;3.97;2.10;;;13.40;66.10;;;;;;5012086;28;20057;-77
2022/05/30 07:25:56;;;;;;;2.55;1.70;;;13.90;64.90;;;;;;4997877;28;20030;-78
2022/05/30 07:28:25;;;;;;;3.53;1.55;;;14.60;63.00;;;;;;5008531;28;20041;-78
2022/05/30 07:30:51;;;;;;;3.63;1.40;;;16.30;57.10;;;;;;5008669;28;20046;-78
2022/05/30 07:33:17;;;;;;;3.47;1.52;;;17.60;53.30;;;;;;5007453;28;20444;-78
2022/05/30 07:35:43;;;;;;;3.70;1.30;;;19.40;49.40;;;;;;5008478;28;20407;-78
2022/05/30 07:38:09;;;;;;;3.38;1.42;;;22.70;42.50;;;;;;4993509;28;20035;-78
2022/05/30 07:40:34;;;;;;;1.67;1.13;;;25.60;36.80;;;;;;4993217;28;20121;-79
2022/05/30 07:43:00;;;;;;;4.25;1.23;;;27.80;32.70;;;;;;5008359;28;20113;-79
2022/05/30 07:45:26;;;;;;;4.15;1.30;;;29.50;30.70;;;;;;4992684;28;20027;-79
2022/05/30 07:47:51;;;;;;;3.25;1.35;;;30.70;29.00;;;;;;5009125;28;20473;-79
2022/05/30 07:50:17;;;;;;;4.40;1.20;;;31.80;27.50;;;;;;4999646;28;20108;-79
2022/05/30 07:52:43;;;;;;;3.58;1.23;;;32.60;25.60;;;;;;5011163;28;20029;-80
2022/05/30 07:55:12;;;;;;;2.25;0.90;;;33.30;24.30;;;;;;5012759;28;20030;-79
2022/05/30 07:57:54;;;;;;;5.15;1.15;;;33.40;23.10;;;;;;4994209;28;20110;-79
2022/05/30 08:00:24;;;;;;;3.58;0.77;;;34.00;23.90;;;;;;5008195;28;20026;-79
2022/05/30 08:02:51;;;;;;;2.30;1.00;;;34.50;22.90;;;;;;4995204;28;20512;-79
2022/05/30 08:05:19;;;;;;;2.22;1.10;;;34.90;22.00;;;;;;5017513;28;20495;-79
2022/05/30 08:07:46;;;;;;;1.65;0.80;;;35.10;21.30;;;;;;5015869;28;20120;-79
2022/05/30 08:10:14;;;;;;;3.42;1.10;;;35.50;21.60;;;;;;5016514;28;20080;-79
2022/05/30 08:12:40;;;;;;;4.85;1.23;;;35.70;20.70;;;;;;5011788;28;20030;-79
2022/05/30 08:15:07;;;;;;;2.92;1.05;;;36.00;21.00;;;;;;5011983;28;20106;-79
2022/05/30 08:17:32;;;;;;;2.20;0.70;;;36.40;20.80;;;;;;5004962;28;20488;-79
2022/05/30 08:20:01;;;;;;;3.20;1.10;;;36.40;20.60;;;;;;5016422;28;20057;-79
2022/05/30 08:22:27;;;;;;;2.40;1.02;;;36.20;20.20;;;;;;5013772;28;20022;-78
2022/05/30 08:24:53;;;;;;;3.47;0.82;;;36.40;20.60;;;;;;5016382;28;20065;-79
2022/05/30 08:27:22;;;;;;;3.33;0.90;;;36.60;20.50;;;;;;4996449;28;20030;-79
2022/05/30 08:29:48;;;;;;;2.78;0.90;;;36.50;19.50;;;;;;5011673;28;20473;-79
2022/05/30 08:32:14;;;;;;;2.45;0.90;;;36.60;19.90;;;;;;4999217;28;20033;-78
2022/05/30 08:34:41;;;;;;;3.55;1.23;;;36.30;20.00;;;;;;5005865;28;20037;-79
2022/05/30 08:37:08;;;;;;;1.42;0.90;;;35.50;20.10;;;;;;5028367;28;20045;-79
2022/05/30 08:42:28;;;;;;;3.75;1.08;;;35.90;20.20;;;;;;5015203;28;20065;-79
2022/05/30 08:44:55;;;;;;;4.22;1.00;;;36.00;20.00;;;;;;5015924;28;20143;-79
2022/05/30 08:47:30;;;;;;;2.72;0.75;;;36.20;19.90;;;;;;5009376;28;20114;-77
2022/05/30 08:50:10;;;;;;;3.97;1.00;;;36.20;20.20;;;;;;4996124;28;20042;-77
2022/05/30 08:53:21;;;;;;;2.38;0.80;;;36.40;20.10;;;;;;5011035;28;20100;-77
2022/05/30 08:55:56;;;;;;;2.05;0.80;;;36.00;19.60;;;;;;5015478;28;20085;-77
2022/05/30 08:58:51;;;;;;;2.90;0.80;;;35.20;20.90;;;;;;5012555;28;20026;-79
2022/05/30 09:01:43;;;;;;;0.70;0.40;;;34.80;21.10;;;;;;4995672;28;20034;-79
2022/05/30 09:04:31;;;;;;;2.05;0.60;;;34.20;19.00;;;;;;4996240;28;20443;-79
2022/05/30 09:07:01;;;;;;;2.08;0.77;;;34.80;19.80;;;;;;5010469;28;20030;-79
2022/05/30 09:09:38;;;;;;;4.78;0.70;;;33.80;19.40;;;;;;4996107;28;20034;-77
2022/05/30 09:12:14;;;;;;;0.97;0.50;;;33.70;20.50;;;;;;5007045;28;20121;-79
2022/05/30 09:14:53;;;;;;;2.65;0.73;;;34.80;20.10;;;;;;5010049;28;20033;-79
2022/05/30 09:17:32;;;;;;;1.70;0.50;;;35.40;19.70;;;;;;4994962;28;20019;-77
2022/05/30 09:19:59;;;;;;;;;;;35.80;19.90;;;;;;5012033;28;20687;-77
2022/05/30 09:22:25;;;;;;;1.80;0.70;;;36.30;19.40;;;;;;5015345;28;20360;-81
2022/05/30 09:27:36;;;;;;;1.88;0.52;;;35.30;18.40;;;;;;5004012;28;20092;-79
2022/05/30 09:30:07;;;;;;;2.20;0.70;;;35.70;19.30;;;;;;5010237;28;20141;-80
2022/05/30 09:33:12;;;;;;;3.05;0.88;;;36.00;19.60;;;;;;5012510;28;20037;-78
2022/05/30 09:35:38;;;;;;;2.08;0.80;;;36.50;18.90;;;;;;5003963;28;20054;-78
2022/05/30 09:38:08;;;;;;;1.85;0.75;;;36.40;17.40;;;;;;4995295;28;20029;-80
2022/05/30 09:40:46;;;;;;;2.95;0.70;;;36.40;16.80;;;;;;4994802;28;20568;-78
2022/05/30 09:43:21;;;;;;;;;;;35.70;17.20;;;;;;4995554;28;20400;-79
2022/05/30 09:45:47;;;;;;;2.78;0.77;;;35.80;19.40;;;;;;5010092;28;20386;-79
2022/05/30 09:48:18;;;;;;;2.50;0.80;;;35.40;17.80;;;;;;5009429;28;20030;-78
2022/05/30 09:50:53;;;;;;;2.10;1.10;;;35.70;19.40;;;;;;4995079;28;20023;-78
2022/05/30 09:53:43;;;;;;;1.98;0.60;;;35.70;17.80;;;;;;5008340;28;20112;-78
2022/05/30 09:56:16;;;;;;;1.80;0.95;;;35.70;19.10;;;;;;5014550;28;20451;-77
2022/05/30 09:58:58;;;;;;;1.85;0.70;;;36.30;18.90;;;;;;4995369;28;20034;-77
2022/05/30 10:01:29;;;;;;;2.05;0.80;;;35.90;18.90;;;;;;4994886;28;20029;-78
2022/05/30 10:04:31;;;;;;;1.35;0.68;;;35.30;17.90;;;;;;4994816;28;20088;-77
2022/05/30 10:07:04;;;;;;;2.63;1.17;;;34.60;19.90;;;;;;4990285;28;20046;-77
2022/05/30 10:09:33;;;;;;;1.13;0.60;;;34.50;20.80;;;;;;5009490;28;20049;-78
2022/05/30 10:11:59;;;;;;;1.70;0.57;;;34.60;20.20;;;;;;5006278;28;20037;-79
2022/05/30 10:14:32;;;;;;;9.05;1.15;;;32.90;21.50;;;;;;5005178;28;20428;-77
2022/05/30 10:17:29;;;;;;;1.73;0.50;;;32.10;22.00;;;;;;4994230;28;20014;-77
2022/05/30 10:19:55;;;;;;;1.45;0.57;;;32.80;21.30;;;;;;4994843;28;20070;-77
2022/05/30 10:28:56;;;;;;;0.75;0.40;;;33.00;20.60;;;;;;4991875;28;20057;-77
2022/05/30 10:31:30;;;;;;;2.78;0.88;;;33.50;20.30;;;;;;4992620;28;20050;-77
2022/05/30 10:34:02;;;;;;;1.20;0.60;;;33.40;20.30;;;;;;5010269;28;20155;-77
2022/05/30 10:37:09;;;;;;;2.25;0.32;;;32.70;19.20;;;;;;5013905;28;20064;-77
2022/05/30 10:40:03;;;;;;;1.75;0.65;;;30.80;19.30;;;;;;4992606;28;20038;-78
2022/05/30 10:42:47;;;;;;;2.03;0.60;;;29.80;22.00;;;;;;5008841;28;20501;-77
2022/05/30 10:45:21;;;;;;;2.83;0.55;;;29.10;22.40;;;;;;5004327;28;20419;-78
2022/05/30 10:47:52;;;;;;;1.75;0.65;;;28.30;24.00;;;;;;5009006;28;20034;-77
2022/05/30 10:50:42;;;;;;;4.68;1.00;;;27.90;23.30;;;;;;4992919;28;20103;-77
2022/05/30 10:53:25;;;;;;;1.55;0.52;;;27.80;24.60;;;;;;5014453;28;20105;-77
2022/05/30 10:55:52;;;;;;;2.20;0.63;;;27.30;24.70;;;;;;5009435;28;20084;-77
2022/05/30 10:58:44;;;;;;;2.17;0.50;;;26.80;23.80;;;;;;4993903;28;20081;-77
2022/05/30 11:01:45;;;;;;;1.52;0.70;;;26.40;24.40;;;;;;5007745;28;20096;-78
2022/05/30 11:04:22;;;;;;;1.45;0.40;;;26.10;25.50;;;;;;5011948;28;20053;-77
2022/05/30 11:06:49;;;;;;;2.55;0.50;;;25.60;26.10;;;;;;5011799;28;20026;-79
2022/05/30 11:09:30;;;;;;;2.10;0.65;;;25.70;26.50;;;;;;4993300;28;20037;-77
2022/05/30 11:12:09;;;;;;;2.50;0.70;;;25.80;25.70;;;;;;4993608;28;20027;-78
2022/05/30 11:14:44;;;;;;;2.17;0.70;;;25.50;27.60;;;;;;4992371;28;20084;-77
2022/05/30 11:17:23;;;;;;;0.93;0.50;;;25.10;27.20;;;;;;4993675;28;20115;-79
2022/05/30 11:19:55;;;;;;;2.20;0.60;;;25.30;27.30;;;;;;4993861;28;20037;-77
2022/05/30 11:22:44;;;;;;;1.02;0.60;;;25.80;27.60;;;;;;5013285;28;20040;-78
2022/05/30 11:25:14;;;;;;;1.33;0.70;;;25.80;26.30;;;;;;5008422;28;20037;-77
2022/05/30 11:27:56;;;;;;;3.30;0.70;;;25.90;26.00;;;;;;4993295;28;20056;-77
2022/05/30 11:30:47;;;;;;;1.92;0.50;;;26.10;28.20;;;;;;4993925;28;20034;-77
2022/05/30 11:33:16;;;;;;;1.90;0.70;;;25.80;27.00;;;;;;5003558;28;20040;-77
2022/05/30 11:36:09;;;;;;;2.08;0.70;;;25.70;26.70;;;;;;5012492;28;20076;-76
2022/05/30 11:39:02;;;;;;;4.30;0.88;;;26.00;27.70;;;;;;5015366;28;20018;-78
2022/05/30 11:41:43;;;;;;;2.72;0.60;;;25.80;26.20;;;;;;4997361;28;20105;-76
2022/05/30 11:44:30;;;;;;;3.03;0.50;;;26.00;27.30;;;;;;5008897;28;20026;-76
2022/05/30 11:47:15;;;;;;;3.28;0.68;;;26.10;27.70;;;;;;5016430;28;20014;-76
2022/05/30 11:49:49;;;;;;;2.70;0.70;;;26.00;28.00;;;;;;5009140;28;20033;-76
2022/05/30 11:52:25;;;;;;;1.33;0.57;;;26.20;27.50;;;;;;5015334;28;20585;-76
2022/05/30 11:55:11;;;;;;;6.50;1.00;;;26.30;27.70;;;;;;5015370;28;20018;-76
2022/05/30 11:57:59;;;;;;;1.73;0.50;;;26.50;26.20;;;;;;4997276;28;20018;-79
2022/05/30 12:00:45;;;;;;;3.72;1.13;;;26.30;27.00;;;;;;5008305;28;20690;-77
2022/05/30 12:03:59;;;;;;;3.50;0.95;;;26.00;27.60;;;;;;4995663;28;20053;-77
2022/05/30 12:06:34;;;;;;;1.70;0.60;;;25.80;28.50;;;;;;4996864;28;20034;-77
2022/05/30 12:09:24;;;;;;;1.75;0.70;;;25.70;28.40;;;;;;4996898;28;20034;-77
2022/05/30 12:12:02;;;;;;;1.08;0.60;;;25.60;28.20;;;;;;5022455;28;20326;-77
2022/05/30 12:15:03;;;;;;;3.22;0.65;;;25.60;28.90;;;;;;5009056;28;20033;-77
2022/05/30 12:17:38;;;;;;;3.72;0.98;;;25.60;28.20;;;;;;4996957;28;20030;-77
2022/05/30 12:25:36;;;;;;;4.32;1.20;;;25.10;29.00;;;;;;4996820;28;20077;-77
2022/05/30 12:28:26;;;;;;;2.03;0.63;;;25.00;29.20;;;;;;5011401;28;20038;-77
2022/05/30 12:30:59;;;;;;;1.98;0.82;;;25.00;29.10;;;;;;5011291;28;20022;-77
2022/05/30 12:33:30;;;;;;;3.17;0.73;;;24.90;29.00;;;;;;5008302;28;20037;-77
2022/05/30 12:36:08;;;;;;;1.73;0.47;;;25.10;29.40;;;;;;5016027;28;20037;-77
2022/05/30 12:38:53;;;;;;;3.95;0.80;;;25.10;29.90;;;;;;5014317;28;20126;-77
2022/05/30 12:41:34;;;;;;;2.75;0.70;;;25.20;29.10;;;;;;4997299;28;20053;-77
2022/05/30 12:44:00;;;;;;;2.58;0.60;;;25.10;28.90;;;;;;4996506;28;20034;-77
2022/05/30 12:46:48;;;;;;;615.35;98.35;;;25.00;29.60;;;;;;4996178;28;20026;-77
2022/05/30 12:49:17;;;;;;;6.93;1.48;;;24.90;29.70;;;;;;4994829;28;20056;-77
2022/05/30 12:52:09;;;;;;;;;;;24.80;29.90;;;;;;4995615;28;20036;-77
2022/05/30 12:55:05;;;;;;;7.50;2.30;;;24.80;30.70;;;;;;4996567;28;19972;-76
2022/05/30 12:57:43;;;;;;;1.42;0.70;;;24.80;30.30;;;;;;4991938;28;20536;-76
2022/05/30 13:00:15;;;;;;;1.52;0.55;;;24.80;29.70;;;;;;4995756;28;20448;-76
2022/05/30 13:02:54;;;;;;;3.33;0.90;;;24.80;29.90;;;;;;4996527;28;20034;-76
2022/05/30 13:05:30;;;;;;;2.20;1.45;;;25.10;27.70;;;;;;4995741;28;20033;-76
2022/05/30 13:07:56;;;;;;;1.02;0.60;;;25.20;28.70;;;;;;4996164;28;20109;-77
2022/05/30 13:10:22;;;;;;;3.42;1.83;;;25.20;27.80;;;;;;4995653;28;20053;-77
2022/05/30 13:13:03;;;;;;;4.40;0.70;;;25.40;29.60;;;;;;5008981;28;20030;-77
2022/05/30 13:15:50;;;;;;;1.75;0.60;;;25.50;28.40;;;;;;5010963;28;20741;-77
2022/05/30 13:18:20;;;;;;;2.50;0.57;;;25.70;28.70;;;;;;5009626;28;20056;-77
2022/05/30 13:20:52;;;;;;;4.22;0.60;;;25.20;25.80;;;;;;5003637;28;20030;-77
2022/05/30 13:23:35;;;;;;;1.80;0.77;;;25.20;26.00;;;;;;5010669;28;20069;-77
2022/05/30 13:26:03;;;;;;;1.50;0.55;;;25.30;26.90;;;;;;4995689;28;20030;-77
2022/05/30 13:28:33;;;;;;;1.83;0.70;;;25.50;26.90;;;;;;4995818;28;20042;-77
2022/05/30 13:31:03;;;;;;;2.17;0.63;;;25.80;27.90;;;;;;5010284;28;20096;-77
2022/05/30 13:33:38;;;;;;;2.75;0.75;;;25.90;27.00;;;;;;4994883;28;20027;-77
2022/05/30 13:36:06;;;;;;;1.83;0.57;;;25.80;28.40;;;;;;4995492;28;20022;-77